Terminal Aerodrome Forecast
Issued by NWS

Home | Current Version | Previous Version | Text Only | Print | Product List | Glossary On
Versions: 1 2 3 4 5 6 7 8 9 10 11 12 13 14
000
FTUS43 KAPX 020520
TAFTVC
TAF
KTVC 020520Z 0206/0306 22004KT P6SM SKC
     FM021300 21008KT P6SM SCT035 BKN140
     FM021700 23009G17KT 6SM -TSRA OVC050CB
     FM022100 25008KT P6SM SCT025 BKN040
     FM030100 VRB03KT P6SM BKN040=

USA.gov is the U.S. government's official web portal to all federal, state and local government web resources and services.